sensor_id;sensor_type;location;lat;lon;timestamp;pressure;altitude;pressure_sealevel;temperature;humidity
32873;BME280;19224;52.462;16.898;2023-02-15T00:00:38;102056.30;;;1.99;100.00
32873;BME280;19224;52.462;16.898;2023-02-15T00:03:10;102053.71;;;2.02;100.00
32873;BME280;19224;52.462;16.898;2023-02-15T00:05:40;102055.05;;;2.03;100.00
32873;BME280;19224;52.462;16.898;2023-02-15T00:08:11;102054.96;;;1.99;100.00
32873;BME280;19224;52.462;16.898;2023-02-15T00:10:42;102060.69;;;1.95;100.00
32873;BME280;19224;52.462;16.898;2023-02-15T00:13:12;102059.73;;;1.93;100.00
32873;BME280;19224;52.462;16.898;2023-02-15T00:15:43;102060.09;;;1.88;100.00
32873;BME280;19224;52.462;16.898;2023-02-15T00:18:13;102052.50;;;1.85;100.00
32873;BME280;19224;52.462;16.898;2023-02-15T00:20:44;102062.25;;;1.86;100.00
32873;BME280;19224;52.462;16.898;2023-02-15T00:23:14;102057.77;;;1.82;100.00
32873;BME280;19224;52.462;16.898;2023-02-15T00:25:45;102062.62;;;1.82;100.00
32873;BME280;19224;52.462;16.898;2023-02-15T00:28:16;102053.73;;;1.79;100.00
32873;BME280;19224;52.462;16.898;2023-02-15T00:30:46;102050.59;;;1.78;100.00
32873;BME280;19224;52.462;16.898;2023-02-15T00:33:17;102043.94;;;1.76;100.00
32873;BME280;19224;52.462;16.898;2023-02-15T00:35:47;102045.69;;;1.74;100.00
32873;BME280;19224;52.462;16.898;2023-02-15T00:38:18;102041.66;;;1.73;100.00
32873;BME280;19224;52.462;16.898;2023-02-15T00:40:54;102037.63;;;1.71;100.00
32873;BME280;19224;52.462;16.898;2023-02-15T00:43:29;102039.45;;;1.74;100.00
32873;BME280;19224;52.462;16.898;2023-02-15T00:46:01;102030.58;;;1.72;100.00
32873;BME280;19224;52.462;16.898;2023-02-15T00:48:31;102030.53;;;1.70;100.00
32873;BME280;19224;52.462;16.898;2023-02-15T00:51:02;102035.76;;;1.66;100.00
32873;BME280;19224;52.462;16.898;2023-02-15T00:53:32;102030.86;;;1.64;100.00
32873;BME280;19224;52.462;16.898;2023-02-15T00:56:03;102026.37;;;1.60;100.00
32873;BME280;19224;52.462;16.898;2023-02-15T00:58:34;102026.70;;;1.55;100.00
32873;BME280;19224;52.462;16.898;2023-02-15T01:01:08;102027.92;;;1.49;100.00
32873;BME280;19224;52.462;16.898;2023-02-15T01:03:39;102022.89;;;1.41;100.00
32873;BME280;19224;52.462;16.898;2023-02-15T01:06:12;102023.76;;;1.40;100.00
32873;BME280;19224;52.462;16.898;2023-02-15T01:08:45;102016.70;;;1.40;100.00
32873;BME280;19224;52.462;16.898;2023-02-15T01:11:19;102020.69;;;1.40;100.00
32873;BME280;19224;52.462;16.898;2023-02-15T01:13:55;102013.59;;;1.39;100.00
32873;BME280;19224;52.462;16.898;2023-02-15T01:16:28;102011.31;;;1.37;100.00
32873;BME280;19224;52.462;16.898;2023-02-15T01:18:59;102013.09;;;1.37;100.00
32873;BME280;19224;52.462;16.898;2023-02-15T01:21:31;102008.20;;;1.36;100.00
32873;BME280;19224;52.462;16.898;2023-02-15T01:24:03;102013.46;;;1.33;100.00
32873;BME280;19224;52.462;16.898;2023-02-15T01:26:33;102010.30;;;1.29;100.00
32873;BME280;19224;52.462;16.898;2023-02-15T01:29:04;102017.34;;;1.29;100.00
32873;BME280;19224;52.462;16.898;2023-02-15T01:31:34;102011.58;;;1.28;100.00
32873;BME280;19224;52.462;16.898;2023-02-15T01:34:04;102011.53;;;1.25;100.00
32873;BME280;19224;52.462;16.898;2023-02-15T01:36:35;102011.48;;;1.23;100.00
32873;BME280;19224;52.462;16.898;2023-02-15T01:39:06;102001.32;;;1.23;100.00
32873;BME280;19224;52.462;16.898;2023-02-15T01:41:36;102005.30;;;1.23;100.00
32873;BME280;19224;52.462;16.898;2023-02-15T01:44:48;101996.80;;;1.19;100.00
32873;BME280;19224;52.462;16.898;2023-02-15T01:47:41;101993.22;;;1.17;100.00
32873;BME280;19224;52.462;16.898;2023-02-15T01:53:38;101986.95;;;1.13;100.00
32873;BME280;19224;52.462;16.898;2023-02-15T01:56:21;101988.64;;;1.10;100.00
32873;BME280;19224;52.462;16.898;2023-02-15T01:58:54;101989.00;;;1.05;100.00
32873;BME280;19224;52.462;16.898;2023-02-15T02:01:28;101985.44;;;1.04;100.00
32873;BME280;19224;52.462;16.898;2023-02-15T02:04:17;101984.06;;;1.01;100.00
32873;BME280;19224;52.462;16.898;2023-02-15T02:06:49;101974.82;;;1.03;100.00
32873;BME280;19224;52.462;16.898;2023-02-15T02:09:20;101981.50;;;1.06;100.00
32873;BME280;19224;52.462;16.898;2023-02-15T02:11:51;101971.30;;;1.04;100.00
32873;BME280;19224;52.462;16.898;2023-02-15T02:14:24;101977.47;;;1.03;100.00
32873;BME280;19224;52.462;16.898;2023-02-15T02:17:09;101971.70;;;1.02;100.00
32873;BME280;19224;52.462;16.898;2023-02-15T02:20:26;101973.39;;;0.98;100.00
32873;BME280;19224;52.462;16.898;2023-02-15T02:29:22;101961.22;;;0.88;100.00
32873;BME280;19224;52.462;16.898;2023-02-15T02:34:58;101958.87;;;0.80;100.00
32873;BME280;19224;52.462;16.898;2023-02-15T02:37:44;101954.80;;;0.77;100.00
32873;BME280;19224;52.462;16.898;2023-02-15T02:40:39;101946.03;;;0.79;100.00
32873;BME280;19224;52.462;16.898;2023-02-15T02:43:22;101946.53;;;0.82;100.00
32873;BME280;19224;52.462;16.898;2023-02-15T02:48:42;101940.72;;;0.78;100.00
32873;BME280;19224;52.462;16.898;2023-02-15T02:51:13;101930.94;;;0.77;100.00
32873;BME280;19224;52.462;16.898;2023-02-15T02:53:45;101926.13;;;0.78;100.00
32873;BME280;19224;52.462;16.898;2023-02-15T02:56:40;101930.11;;;0.78;100.00
32873;BME280;19224;52.462;16.898;2023-02-15T02:59:20;101928.73;;;0.76;100.00
32873;BME280;19224;52.462;16.898;2023-02-15T03:04:42;101922.98;;;0.77;100.00
32873;BME280;19224;52.462;16.898;2023-02-15T03:07:18;101925.08;;;0.71;100.00
32873;BME280;19224;52.462;16.898;2023-02-15T03:09:52;101916.30;;;0.72;100.00
32873;BME280;19224;52.462;16.898;2023-02-15T03:12:34;101921.66;;;0.77;100.00
32873;BME280;19224;52.462;16.898;2023-02-15T03:15:26;101920.83;;;0.78;100.00
32873;BME280;19224;52.462;16.898;2023-02-15T03:18:00;101917.31;;;0.79;100.00
32873;BME280;19224;52.462;16.898;2023-02-15T03:20:37;101911.05;;;0.75;100.00
32873;BME280;19224;52.462;16.898;2023-02-15T03:23:18;101916.36;;;0.77;100.00
32873;BME280;19224;52.462;16.898;2023-02-15T03:25:52;101917.69;;;0.77;100.00
32873;BME280;19224;52.462;16.898;2023-02-15T03:28:39;101918.09;;;0.75;100.00
32873;BME280;19224;52.462;16.898;2023-02-15T03:31:02;101918.50;;;0.73;100.00
32873;BME280;19224;52.462;16.898;2023-02-15T03:33:36;101917.94;;;0.67;100.00
32873;BME280;19224;52.462;16.898;2023-02-15T03:36:26;101909.48;;;0.65;100.00
32873;BME280;19224;52.462;16.898;2023-02-15T03:39:11;101905.00;;;0.61;100.00
32873;BME280;19224;52.462;16.898;2023-02-15T03:41:54;101898.88;;;0.65;100.00
32873;BME280;19224;52.462;16.898;2023-02-15T03:44:31;101899.73;;;0.62;100.00
32873;BME280;19224;52.462;16.898;2023-02-15T03:47:19;101905.51;;;0.65;100.00
32873;BME280;19224;52.462;16.898;2023-02-15T03:50:02;101901.99;;;0.66;100.00
32873;BME280;19224;52.462;16.898;2023-02-15T03:52:32;101898.51;;;0.67;100.00
32873;BME280;19224;52.462;16.898;2023-02-15T03:55:04;101904.32;;;0.71;100.00
32873;BME280;19224;52.462;16.898;2023-02-15T03:57:36;101899.53;;;0.75;100.00
32873;BME280;19224;52.462;16.898;2023-02-15T04:00:26;101896.56;;;0.80;100.00
32873;BME280;19224;52.462;16.898;2023-02-15T04:05:52;101884.77;;;0.87;100.00
32873;BME280;19224;52.462;16.898;2023-02-15T04:08:23;101886.65;;;0.93;100.00
32873;BME280;19224;52.462;16.898;2023-02-15T04:10:56;101880.02;;;0.93;100.00
32873;BME280;19224;52.462;16.898;2023-02-15T04:13:33;101889.31;;;0.94;100.00
32873;BME280;19224;52.462;16.898;2023-02-15T04:16:04;101882.31;;;0.98;100.00
32873;BME280;19224;52.462;16.898;2023-02-15T04:18:39;101870.45;;;1.01;100.00
32873;BME280;19224;52.462;16.898;2023-02-15T04:21:30;101873.56;;;1.02;100.00
32873;BME280;19224;52.462;16.898;2023-02-15T04:24:19;101876.22;;;1.02;100.00
32873;BME280;19224;52.462;16.898;2023-02-15T04:27:07;101880.11;;;0.99;100.00
32873;BME280;19224;52.462;16.898;2023-02-15T04:29:37;101870.37;;;0.98;100.00
32873;BME280;19224;52.462;16.898;2023-02-15T04:32:08;101870.83;;;0.99;100.00
32873;BME280;19224;52.462;16.898;2023-02-15T04:34:39;101871.25;;;0.97;100.00
32873;BME280;19224;52.462;16.898;2023-02-15T04:37:09;101867.67;;;0.95;100.00
32873;BME280;19224;52.462;16.898;2023-02-15T04:39:40;101868.95;;;0.92;100.00
32873;BME280;19224;52.462;16.898;2023-02-15T04:42:10;101865.89;;;0.94;100.00
32873;BME280;19224;52.462;16.898;2023-02-15T04:44:41;101860.59;;;0.94;100.00
32873;BME280;19224;52.462;16.898;2023-02-15T04:47:11;101861.95;;;0.95;100.00
32873;BME280;19224;52.462;16.898;2023-02-15T04:49:42;101857.61;;;1.00;100.00
32873;BME280;19224;52.462;16.898;2023-02-15T04:52:13;101859.84;;;1.01;100.00
32873;BME280;19224;52.462;16.898;2023-02-15T04:54:44;101854.96;;;1.00;100.00
32873;BME280;19224;52.462;16.898;2023-02-15T04:57:15;101854.92;;;0.99;100.00
32873;BME280;19224;52.462;16.898;2023-02-15T04:59:46;101857.20;;;1.01;100.00
32873;BME280;19224;52.462;16.898;2023-02-15T05:02:16;101855.45;;;1.03;100.00
32873;BME280;19224;52.462;16.898;2023-02-15T05:04:47;101860.22;;;0.99;100.00
32873;BME280;19224;52.462;16.898;2023-02-15T05:07:17;101856.70;;;0.98;100.00
32873;BME280;19224;52.462;16.898;2023-02-15T05:09:49;101858.03;;;1.00;100.00
32873;BME280;19224;52.462;16.898;2023-02-15T05:12:20;101857.66;;;1.02;100.00
32873;BME280;19224;52.462;16.898;2023-02-15T05:14:50;101857.20;;;1.02;100.00
32873;BME280;19224;52.462;16.898;2023-02-15T05:17:21;101856.78;;;1.03;100.00
32873;BME280;19224;52.462;16.898;2023-02-15T05:19:51;101857.48;;;0.94;100.00
32873;BME280;19224;52.462;16.898;2023-02-15T05:22:22;101855.66;;;0.90;100.00
32873;BME280;19224;52.462;16.898;2023-02-15T05:24:52;101857.30;;;0.84;100.00
32873;BME280;19224;52.462;16.898;2023-02-15T05:27:41;101855.97;;;0.84;100.00
32873;BME280;19224;52.462;16.898;2023-02-15T05:30:29;101859.48;;;0.83;100.00
32873;BME280;19224;52.462;16.898;2023-02-15T05:33:00;101862.64;;;0.85;100.00
32873;BME280;19224;52.462;16.898;2023-02-15T05:35:31;101855.97;;;0.84;100.00
32873;BME280;19224;52.462;16.898;2023-02-15T05:38:02;101855.97;;;0.84;100.00
32873;BME280;19224;52.462;16.898;2023-02-15T05:40:33;101856.43;;;0.85;100.00
32873;BME280;19224;52.462;16.898;2023-02-15T05:43:03;101855.16;;;0.88;100.00
32873;BME280;19224;52.462;16.898;2023-02-15T05:45:34;101856.16;;;0.94;100.00
32873;BME280;19224;52.462;16.898;2023-02-15T05:48:05;101859.39;;;1.01;100.00
32873;BME280;19224;52.462;16.898;2023-02-15T05:50:35;101852.80;;;1.03;100.00
32873;BME280;19224;52.462;16.898;2023-02-15T05:53:06;101853.27;;;1.04;100.00
32873;BME280;19224;52.462;16.898;2023-02-15T05:55:43;101851.98;;;1.07;100.00
32873;BME280;19224;52.462;16.898;2023-02-15T05:58:14;101852.90;;;1.09;100.00
32873;BME280;19224;52.462;16.898;2023-02-15T06:00:44;101850.20;;;1.06;100.00
32873;BME280;19224;52.462;16.898;2023-02-15T06:03:15;101846.27;;;1.09;100.00
32873;BME280;19224;52.462;16.898;2023-02-15T06:05:45;101846.81;;;1.14;100.00
32873;BME280;19224;52.462;16.898;2023-02-15T06:08:16;101849.95;;;1.17;100.00
32873;BME280;19224;52.462;16.898;2023-02-15T06:10:47;101848.22;;;1.19;100.00
32873;BME280;19224;52.462;16.898;2023-02-15T06:13:18;101845.15;;;1.19;100.00
32873;BME280;19224;52.462;16.898;2023-02-15T06:15:48;101847.34;;;1.18;100.00
32873;BME280;19224;52.462;16.898;2023-02-15T06:18:19;101847.80;;;1.21;100.00
32873;BME280;19224;52.462;16.898;2023-02-15T06:20:50;101851.45;;;1.26;100.00
32873;BME280;19224;52.462;16.898;2023-02-15T06:23:20;101846.55;;;1.24;100.00
32873;BME280;19224;52.462;16.898;2023-02-15T06:25:51;101846.64;;;1.28;100.00
32873;BME280;19224;52.462;16.898;2023-02-15T06:28:21;101844.41;;;1.28;100.00
32873;BME280;19224;52.462;16.898;2023-02-15T06:30:52;101845.36;;;1.31;100.00
32873;BME280;19224;52.462;16.898;2023-02-15T06:33:23;101837.02;;;1.35;100.00
32873;BME280;19224;52.462;16.898;2023-02-15T06:35:53;101833.05;;;1.36;100.00
32873;BME280;19224;52.462;16.898;2023-02-15T06:38:23;101838.47;;;1.44;100.00
32873;BME280;19224;52.462;16.898;2023-02-15T06:40:54;101826.19;;;1.49;100.00
32873;BME280;19224;52.462;16.898;2023-02-15T06:43:24;101825.35;;;1.53;100.00
32873;BME280;19224;52.462;16.898;2023-02-15T06:45:54;101827.21;;;1.57;100.00
32873;BME280;19224;52.462;16.898;2023-02-15T06:48:25;101830.31;;;1.58;100.00
32873;BME280;19224;52.462;16.898;2023-02-15T06:50:55;101826.83;;;1.62;100.00
32873;BME280;19224;52.462;16.898;2023-02-15T06:53:25;101824.22;;;1.65;100.00
32873;BME280;19224;52.462;16.898;2023-02-15T06:56:05;101825.20;;;1.70;100.00
32873;BME280;19224;52.462;16.898;2023-02-15T06:58:39;101818.59;;;1.73;100.00
32873;BME280;19224;52.462;16.898;2023-02-15T07:01:10;101826.17;;;1.78;100.00
32873;BME280;19224;52.462;16.898;2023-02-15T07:03:42;101826.66;;;1.79;100.00
32873;BME280;19224;52.462;16.898;2023-02-15T07:06:12;101832.92;;;1.84;100.00
32873;BME280;19224;52.462;16.898;2023-02-15T07:08:42;101828.06;;;1.85;100.00
32873;BME280;19224;52.462;16.898;2023-02-15T07:11:13;101825.94;;;1.90;100.00
32873;BME280;19224;52.462;16.898;2023-02-15T07:14:01;101823.77;;;1.93;100.00
32873;BME280;19224;52.462;16.898;2023-02-15T07:16:32;101819.81;;;1.96;100.00
32873;BME280;19224;52.462;16.898;2023-02-15T07:19:02;101816.31;;;2.00;100.00
32873;BME280;19224;52.462;16.898;2023-02-15T07:21:33;101816.00;;;2.08;100.00
32873;BME280;19224;52.462;16.898;2023-02-15T07:24:04;101812.53;;;2.13;100.00
32873;BME280;19224;52.462;16.898;2023-02-15T07:26:35;101805.95;;;2.18;100.00
32873;BME280;19224;52.462;16.898;2023-02-15T07:29:05;101809.48;;;2.17;100.00
32873;BME280;19224;52.462;16.898;2023-02-15T07:31:35;101801.63;;;2.26;100.00
32873;BME280;19224;52.462;16.898;2023-02-15T07:34:07;101796.80;;;2.29;100.00
32873;BME280;19224;52.462;16.898;2023-02-15T07:36:37;101793.36;;;2.36;100.00
32873;BME280;19224;52.462;16.898;2023-02-15T07:39:07;101796.50;;;2.40;100.00
32873;BME280;19224;52.462;16.898;2023-02-15T07:41:38;101792.53;;;2.43;100.00
32873;BME280;19224;52.462;16.898;2023-02-15T07:44:13;101797.48;;;2.48;100.00
32873;BME280;19224;52.462;16.898;2023-02-15T07:46:44;101792.73;;;2.58;100.00
32873;BME280;19224;52.462;16.898;2023-02-15T07:49:15;101797.66;;;2.62;100.00
32873;BME280;19224;52.462;16.898;2023-02-15T07:51:45;101801.72;;;2.69;100.00
32873;BME280;19224;52.462;16.898;2023-02-15T07:54:15;101805.33;;;2.77;100.00
32873;BME280;19224;52.462;16.898;2023-02-15T07:56:46;101800.09;;;2.83;100.00
32873;BME280;19224;52.462;16.898;2023-02-15T07:59:16;101801.01;;;2.88;100.00
32873;BME280;19224;52.462;16.898;2023-02-15T08:01:47;101794.41;;;2.91;100.00
32873;BME280;19224;52.462;16.898;2023-02-15T08:04:17;101797.59;;;3.00;100.00
32873;BME280;19224;52.462;16.898;2023-02-15T08:06:47;101788.33;;;3.04;100.00
32873;BME280;19224;52.462;16.898;2023-02-15T08:09:19;101786.56;;;3.06;100.00
32873;BME280;19224;52.462;16.898;2023-02-15T08:11:50;101770.16;;;3.08;100.00
32873;BME280;19224;52.462;16.898;2023-02-15T08:14:21;101769.77;;;3.15;100.00
32873;BME280;19224;52.462;16.898;2023-02-15T08:16:54;101771.64;;;3.23;100.00
32873;BME280;19224;52.462;16.898;2023-02-15T08:19:31;101760.58;;;3.28;100.00
32873;BME280;19224;52.462;16.898;2023-02-15T08:22:07;101758.87;;;3.38;100.00
32873;BME280;19224;52.462;16.898;2023-02-15T08:24:39;101755.83;;;3.46;100.00
32873;BME280;19224;52.462;16.898;2023-02-15T08:27:11;101741.66;;;3.48;100.00
32873;BME280;19224;52.462;16.898;2023-02-15T08:29:42;101742.11;;;3.52;100.00
32873;BME280;19224;52.462;16.898;2023-02-15T08:32:15;101741.72;;;3.57;100.00
32873;BME280;19224;52.462;16.898;2023-02-15T08:34:46;101739.94;;;3.61;100.00
32873;BME280;19224;52.462;16.898;2023-02-15T08:37:18;101747.99;;;3.70;100.00
32873;BME280;19224;52.462;16.898;2023-02-15T08:39:48;101740.47;;;3.72;100.00
32873;BME280;19224;52.462;16.898;2023-02-15T08:42:19;101742.28;;;3.78;100.00
32873;BME280;19224;52.462;16.898;2023-02-15T08:44:49;101745.86;;;3.84;100.00
32873;BME280;19224;52.462;16.898;2023-02-15T08:47:20;101741.03;;;3.91;100.00
32873;BME280;19224;52.462;16.898;2023-02-15T08:49:50;101732.59;;;3.96;100.00
32873;BME280;19224;52.462;16.898;2023-02-15T08:52:21;101733.09;;;4.03;100.00
32873;BME280;19224;52.462;16.898;2023-02-15T08:54:52;101726.42;;;4.06;100.00
32873;BME280;19224;52.462;16.898;2023-02-15T08:57:23;101734.45;;;4.14;100.00
32873;BME280;19224;52.462;16.898;2023-02-15T08:59:53;101724.25;;;4.13;100.00
32873;BME280;19224;52.462;16.898;2023-02-15T09:02:24;101718.48;;;4.18;100.00
32873;BME280;19224;52.462;16.898;2023-02-15T09:04:54;101721.63;;;4.22;100.00
32873;BME280;19224;52.462;16.898;2023-02-15T09:07:24;101722.95;;;4.31;100.00
32873;BME280;19224;52.462;16.898;2023-02-15T09:09:55;101714.53;;;4.32;100.00
32873;BME280;19224;52.462;16.898;2023-02-15T09:12:25;101715.44;;;4.35;100.00
32873;BME280;19224;52.462;16.898;2023-02-15T09:14:55;101717.66;;;4.43;100.00
32873;BME280;19224;52.462;16.898;2023-02-15T09:17:26;101710.12;;;4.47;100.00
32873;BME280;19224;52.462;16.898;2023-02-15T09:19:56;101715.94;;;4.57;100.00
32873;BME280;19224;52.462;16.898;2023-02-15T09:22:26;101708.37;;;4.61;100.00
32873;BME280;19224;52.462;16.898;2023-02-15T09:24:59;101709.70;;;4.64;100.00
32873;BME280;19224;52.462;16.898;2023-02-15T09:27:30;101699.06;;;4.67;100.00
32873;BME280;19224;52.462;16.898;2023-02-15T09:30:00;101699.91;;;4.66;100.00
32873;BME280;19224;52.462;16.898;2023-02-15T09:32:31;101695.91;;;4.66;100.00
32873;BME280;19224;52.462;16.898;2023-02-15T09:35:02;101697.25;;;4.70;100.00
32873;BME280;19224;52.462;16.898;2023-02-15T09:37:32;101695.48;;;4.66;100.00
32873;BME280;19224;52.462;16.898;2023-02-15T09:40:03;101691.94;;;4.69;100.00
32873;BME280;19224;52.462;16.898;2023-02-15T09:42:43;101691.05;;;4.74;100.00
32873;BME280;19224;52.462;16.898;2023-02-15T09:45:26;101690.62;;;4.78;100.00
32873;BME280;19224;52.462;16.898;2023-02-15T09:48:15;101685.27;;;4.79;100.00
32873;BME280;19224;52.462;16.898;2023-02-15T09:54:09;101680.81;;;4.86;100.00
32873;BME280;19224;52.462;16.898;2023-02-15T09:56:57;101669.70;;;4.94;100.00
32873;BME280;19224;52.462;16.898;2023-02-15T10:02:34;101666.14;;;4.99;100.00
32873;BME280;19224;52.462;16.898;2023-02-15T10:17:26;101650.55;;;5.17;100.00
32873;BME280;19224;52.462;16.898;2023-02-15T10:26:21;101641.61;;;5.30;100.00
32873;BME280;19224;52.462;16.898;2023-02-15T10:32:22;101637.14;;;5.36;100.00
32873;BME280;19224;52.462;16.898;2023-02-15T10:38:25;101637.13;;;5.45;100.00
32873;BME280;19224;52.462;16.898;2023-02-15T10:44:05;101628.16;;;5.69;100.00
32873;BME280;19224;52.462;16.898;2023-02-15T10:47:11;101633.46;;;5.76;100.00
32873;BME280;19224;52.462;16.898;2023-02-15T10:55:51;101621.84;;;5.88;100.00
32873;BME280;19224;52.462;16.898;2023-02-15T10:58:43;101616.05;;;5.93;100.00
32873;BME280;19224;52.462;16.898;2023-02-15T11:01:48;101609.33;;;5.96;100.00
32873;BME280;19224;52.462;16.898;2023-02-15T11:07:12;101601.89;;;6.43;100.00
32873;BME280;19224;52.462;16.898;2023-02-15T11:09:50;101592.97;;;6.47;100.00
32873;BME280;19224;52.462;16.898;2023-02-15T11:12:25;101592.00;;;6.54;100.00
32873;BME280;19224;52.462;16.898;2023-02-15T11:15:20;101587.08;;;6.55;100.00
32873;BME280;19224;52.462;16.898;2023-02-15T11:17:56;101587.52;;;6.59;100.00
32873;BME280;19224;52.462;16.898;2023-02-15T11:20:35;101590.16;;;6.63;100.00
32873;BME280;19224;52.462;16.898;2023-02-15T11:23:13;101587.45;;;6.68;100.00
32873;BME280;19224;52.462;16.898;2023-02-15T11:25:59;101581.11;;;6.78;100.00
32873;BME280;19224;52.462;16.898;2023-02-15T11:28:38;101576.98;;;6.87;100.00
32873;BME280;19224;52.462;16.898;2023-02-15T11:31:26;101571.11;;;6.95;100.00
32873;BME280;19224;52.462;16.898;2023-02-15T11:34:01;101575.52;;;7.02;100.00
32873;BME280;19224;52.462;16.898;2023-02-15T11:36:35;101574.97;;;7.09;100.00
32873;BME280;19224;52.462;16.898;2023-02-15T11:39:16;101570.47;;;7.14;100.00
32873;BME280;19224;52.462;16.898;2023-02-15T11:41:58;101568.56;;;7.24;100.00
32873;BME280;19224;52.462;16.898;2023-02-15T11:44:39;101575.22;;;7.27;100.00
32873;BME280;19224;52.462;16.898;2023-02-15T11:47:11;101572.54;;;7.27;100.00
32873;BME280;19224;52.462;16.898;2023-02-15T11:49:42;101567.17;;;7.28;100.00
32873;BME280;19224;52.462;16.898;2023-02-15T11:52:15;101557.32;;;7.30;100.00
32873;BME280;19224;52.462;16.898;2023-02-15T11:54:52;101554.59;;;7.35;100.00
32873;BME280;19224;52.462;16.898;2023-02-15T11:57:39;101554.05;;;7.44;100.00
32873;BME280;19224;52.462;16.898;2023-02-15T12:03:15;101543.61;;;7.57;100.00
32873;BME280;19224;52.462;16.898;2023-02-15T12:05:45;101543.49;;;7.66;100.00
32873;BME280;19224;52.462;16.898;2023-02-15T12:08:21;101539.80;;;7.75;100.00
32873;BME280;19224;52.462;16.898;2023-02-15T12:11:11;101536.09;;;7.83;100.00
32873;BME280;19224;52.462;16.898;2023-02-15T12:13:58;101536.89;;;7.88;100.00
32873;BME280;19224;52.462;16.898;2023-02-15T12:16:48;101531.03;;;7.93;99.79
32873;BME280;19224;52.462;16.898;2023-02-15T12:19:33;101527.36;;;8.00;98.74
32873;BME280;19224;52.462;16.898;2023-02-15T12:22:05;101526.88;;;8.02;99.08
32873;BME280;19224;52.462;16.898;2023-02-15T12:24:45;101524.56;;;8.06;98.62
32873;BME280;19224;52.462;16.898;2023-02-15T12:27:24;101518.70;;;8.10;98.91
32873;BME280;19224;52.462;16.898;2023-02-15T12:30:06;101524.84;;;8.19;98.50
32873;BME280;19224;52.462;16.898;2023-02-15T12:32:56;101519.05;;;8.18;98.76
32873;BME280;19224;52.462;16.898;2023-02-15T12:35:30;101514.02;;;8.25;98.57
32873;BME280;19224;52.462;16.898;2023-02-15T12:40:41;101505.41;;;8.32;97.46
32873;BME280;19224;52.462;16.898;2023-02-15T12:46:24;101503.66;;;8.29;98.00
32873;BME280;19224;52.462;16.898;2023-02-15T12:49:20;101500.46;;;8.34;98.09
32873;BME280;19224;52.462;16.898;2023-02-15T12:51:59;101492.20;;;8.46;97.57
32873;BME280;19224;52.462;16.898;2023-02-15T12:54:39;101492.48;;;8.55;97.13
32873;BME280;19224;52.462;16.898;2023-02-15T12:57:33;101497.35;;;8.58;97.02
32873;BME280;19224;52.462;16.898;2023-02-15T13:02:56;101488.32;;;8.62;97.09
32873;BME280;19224;52.462;16.898;2023-02-15T13:05:44;101486.05;;;8.65;96.96
32873;BME280;19224;52.462;16.898;2023-02-15T13:08:27;101484.65;;;8.66;96.90
32873;BME280;19224;52.462;16.898;2023-02-15T13:10:59;101482.85;;;8.68;97.18
32873;BME280;19224;52.462;16.898;2023-02-15T13:13:37;101476.43;;;8.75;96.42
32873;BME280;19224;52.462;16.898;2023-02-15T13:16:11;101481.77;;;8.78;95.64
32873;BME280;19224;52.462;16.898;2023-02-15T13:18:47;101475.84;;;8.83;95.71
32873;BME280;19224;52.462;16.898;2023-02-15T13:21:26;101471.64;;;8.92;95.09
32873;BME280;19224;52.462;16.898;2023-02-15T13:24:00;101460.76;;;8.98;94.75
32873;BME280;19224;52.462;16.898;2023-02-15T13:26:33;101468.57;;;9.10;94.68
32873;BME280;19224;52.462;16.898;2023-02-15T13:31:51;101461.80;;;9.35;93.42
32873;BME280;19224;52.462;16.898;2023-02-15T13:34:37;101456.58;;;9.48;93.09
32873;BME280;19224;52.462;16.898;2023-02-15T13:40:07;101456.42;;;9.74;91.40
32873;BME280;19224;52.462;16.898;2023-02-15T13:42:53;101456.58;;;9.86;90.86
32873;BME280;19224;52.462;16.898;2023-02-15T13:45:39;101452.75;;;9.96;90.66
32873;BME280;19224;52.462;16.898;2023-02-15T13:48:44;101453.89;;;10.06;90.10
32873;BME280;19224;52.462;16.898;2023-02-15T13:54:07;101450.70;;;10.26;88.22
32873;BME280;19224;52.462;16.898;2023-02-15T14:09:19;101431.89;;;11.06;86.36
32873;BME280;19224;52.462;16.898;2023-02-15T14:15:39;101415.92;;;11.29;85.40
32873;BME280;19224;52.462;16.898;2023-02-15T14:21:19;101419.70;;;11.52;83.59
32873;BME280;19224;52.462;16.898;2023-02-15T14:24:11;101411.78;;;11.62;82.81
32873;BME280;19224;52.462;16.898;2023-02-15T14:27:26;101415.96;;;11.72;83.57
32873;BME280;19224;52.462;16.898;2023-02-15T14:30:02;101417.51;;;11.79;82.82
32873;BME280;19224;52.462;16.898;2023-02-15T14:32:46;101417.60;;;11.91;81.09
32873;BME280;19224;52.462;16.898;2023-02-15T14:35:28;101414.83;;;11.92;80.47
32873;BME280;19224;52.462;16.898;2023-02-15T14:43:52;101406.67;;;11.81;81.31
32873;BME280;19224;52.462;16.898;2023-02-15T14:46:38;101410.62;;;11.84;79.90
32873;BME280;19224;52.462;16.898;2023-02-15T14:49:16;101418.00;;;11.79;79.35
32873;BME280;19224;52.462;16.898;2023-02-15T14:59:58;101413.01;;;11.80;79.78
32873;BME280;19224;52.462;16.898;2023-02-15T15:02:49;101405.88;;;11.77;79.87
32873;BME280;19224;52.462;16.898;2023-02-15T15:05:35;101398.59;;;11.66;80.01
32873;BME280;19224;52.462;16.898;2023-02-15T15:08:17;101398.36;;;11.45;80.86
32873;BME280;19224;52.462;16.898;2023-02-15T15:10:44;101386.81;;;11.40;80.95
32873;BME280;19224;52.462;16.898;2023-02-15T15:13:37;101384.87;;;11.30;80.65
32873;BME280;19224;52.462;16.898;2023-02-15T15:19:12;101378.95;;;11.18;82.69
32873;BME280;19224;52.462;16.898;2023-02-15T15:27:50;101373.84;;;10.78;82.23
32873;BME280;19224;52.462;16.898;2023-02-15T15:33:43;101369.95;;;10.58;84.04